Time;durP1;ratioP1;P1;durP2;ratioP2;P2;SDS_P1;SDS_P2;PMS_P1;PMS_P2;Temp;Humidity;BMP_temperature;BMP_pressure;BME280_temperature;BME280_humidity;BME280_pressure;Samples;Min_cycle;Max_cycle;Signal;HPM_P1;HPM_P2
2022/05/20 00:01:03;;;;;;;2.50;1.47;;;;;;;20.28;83.64;101293.66;5036034;28;20959;-74
2022/05/20 00:03:31;;;;;;;4.17;1.83;;;;;;;20.19;84.17;101295.75;5036339;28;20952;-74
2022/05/20 00:05:57;;;;;;;1.77;1.30;;;;;;;20.16;84.39;101305.47;5036176;28;20546;-73
2022/05/20 00:08:24;;;;;;;2.70;1.90;;;;;;;20.13;85.11;101308.91;5036192;28;20446;-73
2022/05/20 00:10:53;;;;;;;2.53;1.60;;;;;;;20.06;84.75;101316.19;5036211;28;20487;-75
2022/05/20 00:13:20;;;;;;;2.10;1.63;;;;;;;20.03;84.95;101319.63;5036160;28;20447;-75
2022/05/20 00:15:48;;;;;;;3.87;1.20;;;;;;;19.99;86.03;101324.22;5035849;28;20462;-75
2022/05/20 00:18:15;;;;;;;3.83;1.60;;;;;;;20.01;86.17;101313.66;5036062;28;20432;-75
2022/05/20 00:20:42;;;;;;;2.30;1.57;;;;;;;19.98;85.76;101309.66;5036019;28;20443;-74
2022/05/20 00:23:08;;;;;;;3.10;1.60;;;;;;;19.91;86.61;101318.47;5035718;28;20451;-73
2022/05/20 00:25:47;;;;;;;1.60;1.40;;;;;;;19.96;86.79;101322.13;5035981;28;20443;-74
2022/05/20 00:28:14;;;;;;;3.00;2.10;;;;;;;19.95;86.39;101320.53;5035972;28;20438;-74
2022/05/20 00:30:41;;;;;;;2.70;1.60;;;;;;;19.97;86.91;101315.50;5035334;28;20486;-74
2022/05/20 00:33:10;;;;;;;2.60;1.50;;;;;;;19.95;87.00;101318.59;5035535;28;20475;-77
2022/05/20 00:35:36;;;;;;;1.80;1.47;;;;;;;19.91;87.38;101315.72;5037897;28;20447;-78
2022/05/20 00:38:03;;;;;;;4.80;1.73;;;;;;;19.84;87.59;101322.97;5038151;28;20975;-78
2022/05/20 00:40:31;;;;;;;3.43;1.80;;;;;;;19.84;87.17;101322.97;5037920;28;20435;-78
2022/05/20 00:43:09;;;;;;;4.33;1.60;;;;;;;19.77;87.57;101322.75;5037359;28;20535;-78
2022/05/20 00:45:36;;;;;;;8.80;1.90;;;;;;;19.73;88.10;101322.63;5037791;28;20415;-77
2022/05/20 00:48:03;;;;;;;2.70;1.77;;;;;;;19.65;88.85;101324.34;5035579;28;20454;-76
2022/05/20 00:50:31;;;;;;;1.77;1.30;;;;;;;19.63;88.59;101334.91;5035492;28;20490;-76
2022/05/20 00:52:58;;;;;;;1.80;1.40;;;;;;;19.59;88.83;101333.94;5036292;28;20450;-77
2022/05/20 00:55:27;;;;;;;1.43;1.30;;;;;;;19.57;88.90;101339.00;5035911;28;20447;-75
2022/05/20 00:57:56;;;;;;;8.43;1.30;;;;;;;19.57;89.61;101338.19;5035672;28;20459;-78
2022/05/20 01:00:25;;;;;;;3.03;1.90;;;;;;;19.51;89.18;101336.81;5037525;28;20442;-78
2022/05/20 01:02:57;;;;;;;2.13;1.60;;;;;;;19.51;89.54;101332.09;5038558;28;20447;-78
2022/05/20 01:05:27;;;;;;;2.27;1.77;;;;;;;19.37;90.44;101346.19;5039345;28;20450;-77
2022/05/20 01:07:56;;;;;;;2.83;1.87;;;;;;;19.33;90.64;101348.00;5035619;28;20466;-77
2022/05/20 01:10:23;;;;;;;2.00;1.77;;;;;;;19.25;90.85;101346.16;5035018;28;20487;-76
2022/05/20 01:12:50;;;;;;;4.30;2.10;;;;;;;19.22;91.12;101349.63;5035060;28;20442;-75
2022/05/20 01:15:17;;;;;;;2.43;1.50;;;;;;;19.18;91.62;101354.19;5034756;28;20529;-74
2022/05/20 01:17:45;;;;;;;2.73;2.07;;;;;;;19.22;91.83;101357.84;5034820;28;20501;-75
2022/05/20 01:20:15;;;;;;;6.80;2.27;;;;;;;19.23;92.05;101350.41;5034895;28;20446;-73
2022/05/20 01:22:49;;;;;;;3.30;2.20;;;;;;;19.12;92.39;101358.28;5034864;28;20450;-73
2022/05/20 01:25:16;;;;;;;3.67;2.30;;;;;;;19.01;93.51;101368.91;5034826;28;20481;-73
2022/05/20 01:27:43;;;;;;;3.57;2.73;;;;;;;19.09;93.05;101368.00;5034757;28;20467;-73
2022/05/20 01:30:12;;;;;;;6.27;3.30;;;;;;;19.15;92.57;101363.09;5034357;28;20479;-74
2022/05/20 01:32:39;;;;;;;3.83;2.27;;;;;;;19.15;92.98;101368.59;5035036;28;20447;-74
2022/05/20 01:35:09;;;;;;;3.13;2.33;;;;;;;19.07;93.61;101377.72;5034588;28;20436;-74
2022/05/20 01:37:35;;;;;;;3.20;2.10;;;;;;;19.06;93.45;101370.63;5034805;28;20470;-73
2022/05/20 01:40:04;;;;;;;3.43;2.70;;;;;;;19.03;93.78;101379.53;5034516;28;20435;-72
2022/05/20 01:42:35;;;;;;;5.03;2.20;;;;;;;19.06;93.83;101382.41;5033834;28;20865;-73
2022/05/20 01:45:06;;;;;;;3.10;2.80;;;;;;;18.98;94.39;101394.28;5034553;28;20423;-72
2022/05/20 01:47:42;;;;;;;4.20;3.00;;;;;;;19.05;93.82;101391.00;5034441;28;20513;-73
2022/05/20 01:50:15;;;;;;;3.80;2.80;;;;;;;19.05;94.00;101400.03;5034284;28;20495;-73
2022/05/20 01:52:47;;;;;;;3.93;2.73;;;;;;;18.95;94.44;101396.91;5034380;28;20483;-72
2022/05/20 01:55:19;;;;;;;3.20;2.80;;;;;;;18.95;94.86;101413.38;5034352;28;20451;-72
2022/05/20 01:57:52;;;;;;;4.10;3.00;;;;;;;18.97;94.64;101411.91;5034234;28;20459;-73
2022/05/20 02:00:22;;;;;;;4.30;2.97;;;;;;;18.97;94.53;101400.91;5034176;28;20423;-72
2022/05/20 02:03:04;;;;;;;5.40;3.33;;;;;;;18.99;94.89;101403.31;5034059;28;20470;-72
2022/05/20 02:05:35;;;;;;;6.37;3.77;;;;;;;18.98;95.36;101409.94;5033901;28;20924;-74
2022/05/20 02:08:06;;;;;;;4.80;3.87;;;;;;;18.98;95.16;101398.97;5033942;28;20471;-74
2022/05/20 02:10:38;;;;;;;5.10;3.73;;;;;;;19.03;95.05;101401.50;5033915;28;20474;-74
2022/05/20 02:13:08;;;;;;;6.07;3.60;;;;;;;19.03;94.92;101401.50;5033975;28;20427;-74
2022/05/20 02:15:40;;;;;;;6.00;3.90;;;;;;;19.03;94.59;101398.75;5033717;28;20493;-73
2022/05/20 02:18:09;;;;;;;4.90;3.00;;;;;;;18.99;94.86;101403.31;5033559;28;20431;-74
2022/05/20 02:20:41;;;;;;;8.20;3.23;;;;;;;19.02;95.18;101400.69;5033825;28;20514;-73
2022/05/20 02:23:12;;;;;;;5.30;3.80;;;;;;;19.04;95.30;101406.69;5033788;28;20427;-73
2022/05/20 02:25:46;;;;;;;6.23;4.03;;;;;;;19.02;94.88;101397.16;5033617;28;20465;-73
2022/05/20 02:28:18;;;;;;;3.03;2.50;;;;;;;19.03;94.84;101398.75;5033701;28;20434;-73
2022/05/20 02:30:45;;;;;;;4.50;3.53;;;;;;;18.96;95.09;101401.25;5033569;28;20467;-73
2022/05/20 02:33:15;;;;;;;8.47;4.43;;;;;;;18.98;95.20;101409.94;5033611;28;20443;-73
2022/05/20 02:35:42;;;;;;;11.07;4.00;;;;;;;19.01;94.67;101398.31;5033545;28;20844;-72
2022/05/20 02:38:14;;;;;;;6.13;3.43;;;;;;;18.96;94.78;101395.78;5033171;28;20955;-73
2022/05/20 02:40:45;;;;;;;10.60;3.30;;;;;;;18.93;95.46;101410.97;5033491;28;20828;-73
2022/05/20 02:43:12;;;;;;;5.33;3.80;;;;;;;18.94;95.47;101398.84;5033451;28;20428;-73
2022/05/20 02:45:40;;;;;;;4.83;3.50;;;;;;;18.93;95.39;101401.94;5033346;28;20451;-73
2022/05/20 02:48:07;;;;;;;4.60;3.60;;;;;;;18.89;95.41;101413.56;5033337;28;20439;-73
2022/05/20 02:50:34;;;;;;;5.20;3.80;;;;;;;18.88;95.85;101409.22;5033343;28;20532;-73
2022/05/20 02:53:01;;;;;;;6.17;3.90;;;;;;;18.88;96.16;101411.97;5032903;28;20843;-73
2022/05/20 02:55:28;;;;;;;7.80;4.30;;;;;;;18.92;96.31;101416.81;5033281;28;20446;-73
2022/05/20 02:57:55;;;;;;;6.53;3.87;;;;;;;18.94;95.75;101415.31;5033226;28;20458;-73
2022/05/20 03:05:50;;;;;;;3.87;2.80;;;;;;;18.95;95.88;101424.34;5032597;28;20450;-74
2022/05/20 03:08:17;;;;;;;6.13;3.90;;;;;;;18.93;95.97;101421.94;5033135;28;20447;-75
2022/05/20 03:10:43;;;;;;;6.90;4.00;;;;;;;18.93;96.04;101421.16;5033135;28;20483;-75
2022/05/20 03:13:12;;;;;;;3.17;2.57;;;;;;;18.92;95.96;101425.84;5033042;28;20451;-75
2022/05/20 03:15:40;;;;;;;5.03;3.30;;;;;;;18.97;95.59;101427.56;5032871;28;20498;-74
2022/05/20 03:18:07;;;;;;;7.03;4.53;;;;;;;19.01;95.21;101429.31;5033176;28;20462;-74
2022/05/20 03:20:33;;;;;;;6.60;3.90;;;;;;;18.97;94.93;101428.38;5032785;28;20929;-76
2022/05/20 03:23:01;;;;;;;5.63;4.13;;;;;;;18.93;95.29;101443.13;5041897;22;21007;-76
2022/05/20 03:25:27;;;;;;;4.73;3.53;;;;;;;18.99;95.37;101439.84;5033356;28;20458;-76
2022/05/20 03:27:54;;;;;;;4.13;3.47;;;;;;;19.06;94.78;101442.03;5033004;28;20967;-76
2022/05/20 03:30:22;;;;;;;6.60;3.87;;;;;;;19.08;94.82;101446.06;5033213;28;20442;-75
2022/05/20 03:32:48;;;;;;;6.97;4.40;;;;;;;19.05;95.22;101440.44;5034243;28;20463;-77
2022/05/20 03:35:15;;;;;;;7.17;4.37;;;;;;;18.99;95.68;101439.00;5033633;28;20463;-77
2022/05/20 03:37:41;;;;;;;6.10;4.20;;;;;;;19.05;95.50;101445.91;5033667;28;20815;-76
2022/05/20 03:40:09;;;;;;;5.87;4.07;;;;;;;19.06;95.32;101450.25;5034025;28;20495;-77
2022/05/20 03:42:36;;;;;;;5.00;3.53;;;;;;;19.08;95.10;101440.56;5033809;28;20471;-77
2022/05/20 03:45:04;;;;;;;6.17;3.87;;;;;;;18.97;96.29;101444.06;5033687;28;20453;-78
2022/05/20 03:47:31;;;;;;;4.83;3.00;;;;;;;18.97;95.94;101450.34;5033697;28;20534;-77
2022/05/20 03:50:00;;;;;;;10.20;4.10;;;;;;;19.04;95.99;101449.81;5033817;28;20446;-78
2022/05/20 03:52:26;;;;;;;5.00;4.00;;;;;;;19.04;95.82;101447.88;5033654;28;20490;-76
2022/05/20 03:54:53;;;;;;;6.10;3.60;;;;;;;18.98;96.32;101448.41;5033496;28;20460;-77
2022/05/20 03:57:19;;;;;;;7.20;4.43;;;;;;;19.02;95.93;101438.34;5033811;28;20509;-77
2022/05/20 03:59:46;;;;;;;8.53;3.57;;;;;;;19.01;95.96;101444.97;5033022;28;20967;-76
2022/05/20 04:02:14;;;;;;;5.43;4.10;;;;;;;18.99;95.76;101444.50;5032912;28;20459;-77
2022/05/20 04:04:43;;;;;;;6.90;4.43;;;;;;;19.04;95.43;101456.09;5033739;28;20451;-77
2022/05/20 04:07:12;;;;;;;5.77;4.40;;;;;;;19.03;95.11;101459.97;5036960;28;20443;-76
2022/05/20 04:09:39;;;;;;;6.20;4.13;;;;;;;19.06;95.04;101458.50;5036641;28;20782;-77
2022/05/20 04:12:08;;;;;;;18.03;5.10;;;;;;;19.02;95.17;101460.31;5036074;28;20494;-78
2022/05/20 04:14:36;;;;;;;7.47;4.50;;;;;;;19.03;95.28;101459.16;5036533;28;20446;-77
2022/05/20 04:17:03;;;;;;;7.67;5.17;;;;;;;19.04;95.11;101458.84;5036508;28;20450;-77
2022/05/20 04:19:32;;;;;;;5.20;3.83;;;;;;;19.05;95.23;101462.41;5036668;28;20447;-76
2022/05/20 04:22:04;;;;;;;6.53;4.17;;;;;;;19.06;94.99;101458.50;5036016;28;20470;-76
2022/05/20 04:24:31;;;;;;;5.43;4.30;;;;;;;19.04;95.17;101461.59;5036306;28;20427;-76
2022/05/20 04:26:57;;;;;;;8.47;4.90;;;;;;;19.12;95.00;101462.63;5035990;28;20450;-76
2022/05/20 04:29:23;;;;;;;7.70;4.80;;;;;;;19.13;94.83;101458.78;5035925;28;20451;-76
2022/05/20 04:31:51;;;;;;;8.23;4.80;;;;;;;19.15;94.72;101471.00;5036090;28;20490;-76
2022/05/20 04:34:19;;;;;;;6.03;4.63;;;;;;;19.16;94.87;101469.06;5036660;28;20442;-77
2022/05/20 04:36:46;;;;;;;6.70;4.70;;;;;;;19.25;94.80;101471.72;5036736;28;20527;-76
2022/05/20 04:39:14;;;;;;;8.90;5.17;;;;;;;19.29;94.03;101472.66;5037193;28;20447;-77
2022/05/20 04:47:15;;;;;;;7.80;4.57;;;;;;;19.35;93.57;101483.13;5035740;28;20423;-77
2022/05/20 04:49:42;;;;;;;6.73;4.27;;;;;;;19.38;93.10;101487.91;5036193;28;21008;-77
2022/05/20 04:52:09;;;;;;;9.07;4.67;;;;;;;19.37;93.35;101474.53;5036484;28;20893;-77
2022/05/20 04:54:52;;;;;;;5.30;4.63;;;;;;;19.40;93.12;101485.66;5036556;28;20466;-77
2022/05/20 04:57:22;;;;;;;5.07;3.63;;;;;;;19.46;92.81;101477.19;5036641;28;20482;-77
2022/05/20 04:59:49;;;;;;;7.30;5.00;;;;;;;19.51;92.93;101485.22;5037250;28;20948;-77
2022/05/20 05:02:16;;;;;;;5.90;4.50;;;;;;;19.58;93.13;101490.97;5037975;28;20467;-78
2022/05/20 05:04:42;;;;;;;5.70;4.80;;;;;;;19.63;91.58;101496.28;5038935;28;20431;-78
2022/05/20 05:07:11;;;;;;;18.43;5.37;;;;;;;19.59;91.74;101495.31;5037792;28;20443;-77
2022/05/20 05:09:40;;;;;;;5.47;4.13;;;;;;;19.64;91.93;101492.38;5037505;28;20787;-77
2022/05/20 05:12:08;;;;;;;8.83;5.33;;;;;;;19.67;91.82;101497.19;5036894;28;20505;-77
2022/05/20 05:14:37;;;;;;;7.50;5.60;;;;;;;19.74;90.74;101505.69;5036340;28;20967;-77
2022/05/20 05:17:06;;;;;;;9.63;4.43;;;;;;;19.77;90.89;101513.25;5035946;28;20967;-77
2022/05/20 05:19:34;;;;;;;5.30;4.13;;;;;;;19.75;91.00;101512.00;5038894;28;20817;-80
2022/05/20 05:22:00;;;;;;;5.60;3.77;;;;;;;19.78;92.05;101506.59;5036226;28;20471;-76
2022/05/20 05:24:27;;;;;;;6.00;4.70;;;;;;;19.76;91.68;101511.66;5038198;28;20447;-79
2022/05/20 05:26:55;;;;;;;5.10;4.23;;;;;;;19.77;91.45;101510.50;5036924;28;20459;-76
2022/05/20 05:29:23;;;;;;;7.60;5.30;;;;;;;19.67;90.90;101510.94;5035451;28;20447;-76
2022/05/20 05:31:49;;;;;;;5.43;4.47;;;;;;;19.66;90.99;101520.34;5035990;28;20491;-77
2022/05/20 05:34:16;;;;;;;5.00;4.13;;;;;;;19.59;92.08;101518.09;5037493;28;20446;-78
2022/05/20 05:36:42;;;;;;;8.10;3.97;;;;;;;19.68;91.74;101512.53;5038418;28;20447;-76
2022/05/20 05:39:09;;;;;;;6.10;4.33;;;;;;;19.70;91.59;101507.53;5037750;28;20920;-77
2022/05/20 05:41:36;;;;;;;6.30;4.50;;;;;;;19.72;91.31;101516.22;5036503;28;20463;-78
2022/05/20 05:44:04;;;;;;;5.70;4.67;;;;;;;19.53;92.98;101518.66;5038995;28;20451;-76
2022/05/20 05:46:31;;;;;;;9.97;5.77;;;;;;;19.62;91.71;101522.97;5037557;28;20446;-77
2022/05/20 05:48:58;;;;;;;5.30;4.10;;;;;;;19.73;92.31;101523.31;5036091;28;20442;-77
2022/05/20 05:51:26;;;;;;;7.37;5.03;;;;;;;19.85;90.67;101526.09;5036544;28;20487;-80
2022/05/20 05:53:52;;;;;;;6.67;4.10;;;;;;;19.92;89.09;101528.28;5037513;28;20439;-79
2022/05/20 05:56:19;;;;;;;9.70;6.17;;;;;;;19.93;87.62;101529.09;5037062;28;20461;-76
2022/05/20 05:58:45;;;;;;;6.80;5.53;;;;;;;19.93;86.14;101542.84;5036721;28;20824;-76
2022/05/20 06:01:13;;;;;;;5.63;4.10;;;;;;;19.92;84.86;101542.03;5037585;28;20566;-78
2022/05/20 06:03:40;;;;;;;6.83;4.70;;;;;;;19.91;84.59;101541.22;5038110;28;20891;-79
2022/05/20 06:06:06;;;;;;;7.40;5.40;;;;;;;19.88;84.10;101536.44;5035221;28;20925;-77
2022/05/20 06:08:33;;;;;;;10.60;5.40;;;;;;;19.91;84.31;101540.44;5035914;28;20794;-77
2022/05/20 06:10:59;;;;;;;9.20;6.30;;;;;;;19.95;84.02;101538.59;5037316;28;20450;-77
2022/05/20 06:13:28;;;;;;;8.57;5.60;;;;;;;19.89;84.23;101535.28;5036246;28;20454;-77
2022/05/20 06:15:56;;;;;;;10.97;5.10;;;;;;;19.78;84.71;101528.59;5035377;28;20435;-76
2022/05/20 06:18:25;;;;;;;6.73;5.20;;;;;;;19.72;84.89;101540.97;5034854;28;20474;-78
2022/05/20 06:20:52;;;;;;;5.67;4.90;;;;;;;19.70;85.27;101535.00;5036345;28;20450;-75
2022/05/20 06:23:18;;;;;;;7.40;4.60;;;;;;;19.67;85.73;101540.38;5033680;28;20462;-76
2022/05/20 06:25:45;;;;;;;8.50;5.03;;;;;;;19.68;84.92;101537.28;5034077;28;20497;-76
2022/05/20 06:28:14;;;;;;;6.73;5.17;;;;;;;19.53;85.58;101546.16;5033562;28;20452;-76
2022/05/20 06:30:42;;;;;;;7.87;5.57;;;;;;;19.54;86.24;101536.75;5033661;28;20451;-75
2022/05/20 06:33:09;;;;;;;6.77;3.63;;;;;;;19.58;86.57;101540.44;5033736;28;20486;-76
2022/05/20 06:41:07;;;;;;;5.40;3.70;;;;;;;19.87;84.68;101529.31;5033506;28;20411;-76
2022/05/20 06:43:34;;;;;;;10.83;5.00;;;;;;;20.03;84.02;101525.91;5033710;28;20540;-76
2022/05/20 06:46:03;;;;;;;5.83;4.00;;;;;;;20.15;83.30;101539.69;5033608;28;20454;-76
2022/05/20 06:48:39;;;;;;;7.40;5.23;;;;;;;20.22;82.25;101525.34;5033340;28;20850;-75
2022/05/20 06:51:08;;;;;;;6.67;4.37;;;;;;;20.32;82.54;101530.38;5033490;28;20458;-76
2022/05/20 06:53:34;;;;;;;5.33;4.53;;;;;;;20.35;81.16;101535.19;5033500;28;20655;-76
2022/05/20 06:56:01;;;;;;;5.37;3.47;;;;;;;20.35;80.60;101522.22;5033603;28;20446;-76
2022/05/20 06:58:27;;;;;;;9.50;4.57;;;;;;;20.36;78.54;101528.53;5033529;28;20452;-75
2022/05/20 07:00:54;;;;;;;4.07;2.90;;;;;;;20.24;78.77;101525.81;5033387;28;20469;-75
2022/05/20 07:03:21;;;;;;;4.90;3.50;;;;;;;19.98;79.48;101537.94;5033325;28;20553;-75
2022/05/20 07:05:49;;;;;;;4.33;3.17;;;;;;;19.95;80.96;101526.81;5033434;28;20454;-75
2022/05/20 07:08:18;;;;;;;4.80;3.70;;;;;;;20.00;80.75;101518.31;5033401;28;20506;-74
2022/05/20 07:10:44;;;;;;;5.13;3.50;;;;;;;20.16;81.58;101522.00;5033222;28;20537;-75
2022/05/20 07:13:11;;;;;;;4.30;3.23;;;;;;;20.40;80.75;101530.25;5032896;28;20503;-75
2022/05/20 07:15:37;;;;;;;15.03;3.27;;;;;;;20.38;77.49;101524.31;5033109;28;20431;-75
2022/05/20 07:18:04;;;;;;;5.30;3.17;;;;;;;20.33;76.97;101532.00;5033354;28;20439;-75
2022/05/20 07:20:31;;;;;;;6.77;4.10;;;;;;;20.25;78.58;101530.97;5033048;28;20546;-74
2022/05/20 07:22:58;;;;;;;7.23;3.90;;;;;;;20.30;78.31;101516.97;5033198;28;20539;-75
2022/05/20 07:25:25;;;;;;;5.23;3.20;;;;;;;20.52;77.70;101520.44;5033238;28;20463;-76
2022/05/20 07:27:52;;;;;;;8.30;3.83;;;;;;;20.66;77.31;101527.16;5033540;28;20439;-75
2022/05/20 07:30:19;;;;;;;4.67;3.40;;;;;;;20.58;76.23;101521.78;5032874;28;20475;-75
2022/05/20 07:32:45;;;;;;;4.23;3.30;;;;;;;20.62;76.66;101520.75;5033074;28;20552;-75
2022/05/20 07:35:12;;;;;;;5.07;4.20;;;;;;;20.63;76.62;101519.63;5033135;28;20470;-75
2022/05/20 07:37:39;;;;;;;5.70;3.70;;;;;;;20.71;75.68;101515.13;5032803;28;20454;-76
2022/05/20 07:40:06;;;;;;;5.40;3.10;;;;;;;20.75;75.12;101529.81;5034382;28;20545;-75
2022/05/20 07:42:34;;;;;;;2.57;2.17;;;;;;;20.63;74.12;101536.16;5037200;28;20459;-76
2022/05/20 07:45:01;;;;;;;3.43;2.73;;;;;;;20.51;72.41;101532.59;5036887;28;20473;-74
2022/05/20 07:47:28;;;;;;;5.10;3.10;;;;;;;20.52;72.76;101529.50;5036617;28;20900;-74
2022/05/20 07:49:55;;;;;;;4.70;3.30;;;;;;;20.40;74.10;101527.50;5036865;28;20439;-74
2022/05/20 07:55:04;;;;;;;3.30;2.70;;;;;;;20.51;73.14;101516.88;5035579;28;20439;-75
2022/05/20 07:57:31;;;;;;;6.10;3.07;;;;;;;20.57;74.00;101515.50;5036709;28;20443;-75
2022/05/20 07:59:59;;;;;;;5.67;3.17;;;;;;;20.81;72.66;101522.13;5036203;28;20451;-75
2022/05/20 08:02:29;;;;;;;3.67;2.70;;;;;;;20.98;73.21;101527.31;5036573;28;20455;-75
2022/05/20 08:04:58;;;;;;;5.20;3.17;;;;;;;20.99;71.24;101519.91;5036543;28;20539;-74
2022/05/20 08:07:28;;;;;;;3.60;2.40;;;;;;;20.97;71.55;101533.19;5036266;28;20881;-75
2022/05/20 08:09:55;;;;;;;4.53;2.87;;;;;;;21.05;72.07;101526.75;5036563;28;20942;-76
2022/05/20 08:12:22;;;;;;;4.57;3.53;;;;;;;21.13;72.10;101520.31;5036516;28;20486;-76
2022/05/20 08:14:49;;;;;;;4.47;2.40;;;;;;;21.17;71.75;101524.75;5036523;28;20454;-77
2022/05/20 08:17:20;;;;;;;7.43;3.40;;;;;;;21.18;69.31;101533.81;5036404;28;20439;-76
2022/05/20 08:19:47;;;;;;;4.80;2.90;;;;;;;21.21;68.96;101532.34;5036725;28;20550;-76
2022/05/20 08:22:14;;;;;;;5.20;2.50;;;;;;;21.19;69.36;101523.59;5036229;28;20544;-77
2022/05/20 08:24:40;;;;;;;4.23;3.23;;;;;;;21.12;67.11;101514.00;5036471;28;20451;-75
2022/05/20 08:27:07;;;;;;;3.33;3.03;;;;;;;21.27;67.11;101515.19;5036257;28;20469;-75
2022/05/20 08:29:34;;;;;;;4.10;2.90;;;;;;;21.34;67.39;101514.63;5036137;28;20451;-75
2022/05/20 08:32:01;;;;;;;3.80;2.73;;;;;;;21.41;68.57;101501.03;5036039;28;20499;-76
2022/05/20 08:34:29;;;;;;;3.30;2.47;;;;;;;21.49;68.51;101507.53;5036070;28;20454;-76
2022/05/20 08:36:55;;;;;;;4.47;2.77;;;;;;;21.59;67.11;101504.25;5035601;28;21153;-76
2022/05/20 08:39:22;;;;;;;5.80;2.73;;;;;;;21.55;67.82;101506.91;5036053;28;20443;-76
2022/05/20 08:41:52;;;;;;;3.83;2.87;;;;;;;21.60;65.95;101509.44;5036007;28;20529;-75
2022/05/20 08:44:21;;;;;;;3.90;3.03;;;;;;;21.52;66.74;101504.88;5035885;28;20447;-76
2022/05/20 08:46:49;;;;;;;2.73;2.23;;;;;;;21.57;67.58;101503.81;5035850;28;20447;-75
2022/05/20 08:49:19;;;;;;;10.23;3.63;;;;;;;21.52;66.91;101507.63;5035823;28;20454;-76
2022/05/20 08:51:49;;;;;;;2.57;2.23;;;;;;;21.51;66.90;101494.19;5037324;28;20463;-76
2022/05/20 08:54:16;;;;;;;4.30;3.37;;;;;;;21.60;67.08;101500.34;5035707;28;20432;-76
2022/05/20 08:56:44;;;;;;;2.70;2.50;;;;;;;21.64;67.29;101501.25;5035403;28;20431;-77
2022/05/20 08:59:14;;;;;;;4.57;3.00;;;;;;;21.62;65.35;101498.84;5036390;28;20451;-78
2022/05/20 09:01:43;;;;;;;5.73;2.90;;;;;;;21.70;64.88;101499.03;5036068;28;20466;-77
2022/05/20 09:04:12;;;;;;;2.77;2.30;;;;;;;21.72;65.38;101508.53;5035972;28;20940;-77
2022/05/20 09:06:41;;;;;;;6.27;3.03;;;;;;;21.64;63.90;101496.53;5036276;28;20454;-78
2022/05/20 09:09:14;;;;;;;5.13;3.00;;;;;;;21.72;65.51;101503.03;5036239;28;20439;-76
2022/05/20 09:11:44;;;;;;;3.20;2.40;;;;;;;21.82;63.12;101491.47;5035254;28;20487;-77
2022/05/20 09:17:10;;;;;;;3.47;2.50;;;;;;;22.03;64.28;101493.97;5035591;28;20499;-76
2022/05/20 09:19:37;;;;;;;2.93;2.47;;;;;;;22.13;62.53;101485.19;5035535;28;20502;-76
2022/05/20 09:22:06;;;;;;;2.20;1.73;;;;;;;22.23;63.03;101478.31;5034694;28;20489;-76
2022/05/20 09:24:39;;;;;;;2.90;2.40;;;;;;;22.25;62.76;101476.00;5015297;28;20448;-76
2022/05/20 09:27:08;;;;;;;4.63;2.13;;;;;;;22.14;61.11;101467.47;5016146;28;20428;-77
2022/05/20 09:29:38;;;;;;;2.63;1.73;;;;;;;22.31;62.23;101474.56;5015880;28;20432;-77
2022/05/20 09:32:07;;;;;;;3.40;2.43;;;;;;;22.40;63.01;101472.41;5049711;22;20495;-70
2022/05/20 09:34:38;;;;;;;2.27;1.90;;;;;;;22.55;62.63;101461.69;5034888;28;20440;-69
2022/05/20 09:37:17;;;;;;;3.37;2.00;;;;;;;22.70;61.18;101465.53;5034910;28;20431;-70
2022/05/20 09:39:47;;;;;;;4.23;2.37;;;;;;;22.60;61.00;101464.94;5034920;28;20431;-70
2022/05/20 09:42:16;;;;;;;2.60;2.20;;;;;;;22.77;59.83;101449.13;5034609;28;20447;-69
2022/05/20 09:44:48;;;;;;;1.73;1.60;;;;;;;22.85;60.52;101450.88;5034580;28;20945;-69
2022/05/20 09:47:25;;;;;;;2.20;1.67;;;;;;;22.85;58.35;101456.41;5034740;28;20462;-69
2022/05/20 09:49:55;;;;;;;1.80;1.40;;;;;;;22.90;59.05;101450.63;5034835;28;20555;-69
2022/05/20 09:52:27;;;;;;;11.23;2.43;;;;;;;22.80;56.52;101453.91;5034353;28;20475;-69
2022/05/20 09:55:01;;;;;;;2.17;1.50;;;;;;;22.84;58.01;101444.56;5034714;28;20427;-69
2022/05/20 09:57:35;;;;;;;2.90;1.97;;;;;;;22.85;57.10;101446.16;5034542;28;20473;-69
2022/05/20 10:00:06;;;;;;;2.17;1.47;;;;;;;22.92;56.24;101437.22;5034131;28;20909;-71
2022/05/20 10:02:36;;;;;;;4.73;1.60;;;;;;;23.01;53.82;101445.28;5033326;28;20459;-69
2022/05/20 10:05:15;;;;;;;2.60;1.50;;;;;;;22.99;53.46;101442.91;5034325;28;20450;-71
2022/05/20 10:07:54;;;;;;;4.00;1.50;;;;;;;23.01;53.38;101435.03;5034200;28;20430;-69
2022/05/20 10:10:35;;;;;;;4.57;1.87;;;;;;;23.00;52.75;101432.63;5034165;28;20427;-69
2022/05/20 10:13:05;;;;;;;2.10;1.60;;;;;;;22.94;51.67;101431.34;5034006;28;20482;-68
2022/05/20 10:15:35;;;;;;;1.33;1.07;;;;;;;22.90;51.25;101423.78;5034080;28;20493;-67
2022/05/20 10:18:14;;;;;;;5.73;1.63;;;;;;;22.94;53.90;101434.91;5034000;28;20802;-67
2022/05/20 10:20:48;;;;;;;1.90;1.30;;;;;;;22.94;53.83;101417.53;5034048;28;20793;-66
2022/05/20 10:23:28;;;;;;;1.70;1.50;;;;;;;22.91;53.59;101422.59;5033614;28;20814;-68
2022/05/20 10:26:04;;;;;;;2.60;1.77;;;;;;;23.03;53.32;101429.94;5033972;28;20434;-66
2022/05/20 10:34:17;;;;;;;3.53;1.40;;;;;;;23.19;54.13;101432.59;5033507;28;20482;-66
2022/05/20 10:36:55;;;;;;;3.80;2.37;;;;;;;23.09;53.19;101427.69;5033651;28;20451;-66
2022/05/20 10:39:51;;;;;;;2.67;1.63;;;;;;;23.31;53.35;101420.59;5033857;28;20427;-68
2022/05/20 10:42:36;;;;;;;1.97;1.50;;;;;;;23.49;49.81;101423.66;5033678;28;20513;-66
2022/05/20 10:51:04;;;;;;;1.73;1.60;;;;;;;23.85;49.94;101414.81;5033323;28;20411;-67
2022/05/20 10:53:42;;;;;;;1.47;1.20;;;;;;;23.95;50.23;101416.16;5033103;28;20992;-68
2022/05/20 10:56:27;;;;;;;2.23;1.50;;;;;;;23.92;49.50;101417.69;5033464;28;20934;-67
2022/05/20 10:59:08;;;;;;;3.83;1.90;;;;;;;24.09;48.05;101404.50;5033503;28;20415;-66
2022/05/20 11:01:48;;;;;;;1.73;1.30;;;;;;;24.25;48.02;101398.78;5033536;28;20435;-66
2022/05/20 11:04:39;;;;;;;4.30;1.30;;;;;;;24.40;49.28;101395.88;5033147;28;20920;-67
2022/05/20 11:07:41;;;;;;;1.67;1.13;;;;;;;24.65;45.93;101381.50;5033458;28;20431;-71
2022/05/20 11:10:28;;;;;;;1.60;1.10;;;;;;;24.79;44.04;101384.47;5033637;28;20445;-66
2022/05/20 11:13:05;;;;;;;3.40;1.30;;;;;;;24.99;45.16;101389.81;5033284;28;20517;-69
2022/05/20 11:15:58;;;;;;;3.13;1.37;;;;;;;25.63;43.17;101374.59;5037507;28;20952;-69
2022/05/20 11:19:02;;;;;;;1.53;1.37;;;;;;;25.89;41.42;101372.81;5038719;28;20432;-69
2022/05/20 11:22:02;;;;;;;1.53;1.33;;;;;;;26.93;40.74;101382.44;5012725;28;20477;-69
2022/05/20 11:24:51;;;;;;;3.13;1.20;;;;;;;28.05;39.35;101378.50;5034257;28;20459;-69
2022/05/20 11:27:38;;;;;;;1.70;1.30;;;;;;;28.99;39.02;101374.16;5037804;28;20435;-69
2022/05/20 11:30:21;;;;;;;2.47;1.53;;;;;;;29.53;36.78;101377.31;5037591;28;20477;-69
2022/05/20 11:33:16;;;;;;;1.90;1.30;;;;;;;29.56;38.39;101368.94;5037152;28;20526;-70
2022/05/20 11:35:59;;;;;;;1.40;1.10;;;;;;;30.02;36.65;101373.31;5037463;28;20447;-69
2022/05/20 11:38:45;;;;;;;2.10;1.20;;;;;;;30.22;35.68;101365.09;5036698;28;20777;-69
2022/05/20 11:41:25;;;;;;;4.70;1.47;;;;;;;29.98;36.48;101358.56;5037293;28;20461;-68
2022/05/20 11:44:08;;;;;;;1.57;1.20;;;;;;;29.92;36.48;101338.66;5035888;28;20501;-69
2022/05/20 11:46:53;;;;;;;1.43;0.87;;;;;;;30.19;35.21;101337.19;5036145;28;20489;-71
2022/05/20 11:49:40;;;;;;;1.20;1.03;;;;;;;30.42;35.98;101337.31;5041573;28;20432;-69
2022/05/20 11:52:21;;;;;;;1.80;1.10;;;;;;;31.18;34.45;101331.41;5037089;28;20446;-70
2022/05/20 11:54:52;;;;;;;1.43;0.90;;;;;;;30.47;35.09;101339.63;5036798;28;20604;-68
2022/05/20 11:57:22;;;;;;;1.57;1.10;;;;;;;30.35;36.00;101323.41;5036736;28;20436;-69
2022/05/20 11:59:54;;;;;;;1.80;1.33;;;;;;;30.45;35.34;101321.69;5036968;28;20957;-69
2022/05/20 12:02:24;;;;;;;1.53;1.30;;;;;;;30.93;35.98;101329.00;5037106;28;20572;-69
2022/05/20 12:04:53;;;;;;;2.53;1.33;;;;;;;31.08;34.68;101327.59;5036540;28;20438;-69
2022/05/20 12:07:23;;;;;;;3.23;1.60;;;;;;;31.11;35.38;101321.13;5036400;28;20940;-69
2022/05/20 12:09:51;;;;;;;2.13;1.50;;;;;;;31.35;35.94;101322.75;5036592;28;20439;-68
2022/05/20 12:12:24;;;;;;;3.83;1.93;;;;;;;31.36;33.72;101301.13;5035926;28;20455;-68